Devalls Bluff, Arkansas
Current Conditions -  °F | °C
As of 6:35 PM on Wednesday 26 Nov 2014 (Local Time) from KSGT Reporting Station
Clear Clear  
Wind Chill:   Ceiling: Unl
Heat Index:   Visibility: 10mi
Dew Point:   Wind: 10mph
Humidity: 57%   Direction: 280°W
Pressure: 30.16"   Gusts: NA
Location:  34.7129°N, 91.5513°W
Report Text: KSGT 270035Z AUTO 28009KT 10SM CLR 08/00 A3016 RMK AO1
Loading
Personal Weather Stations






























Interactive Weather Map New forecast layout! Learn more

10-Day Weather Forecast

Advertisements
Track Severe Weather on mobile